createdAt,value
2018-12-12T00:01:17.396Z,5.70
2018-12-12T00:03:44.984Z,1.90
2018-12-12T00:06:12.620Z,2.20
2018-12-12T00:08:40.283Z,2.37
2018-12-12T00:11:07.948Z,1.87
2018-12-12T00:13:35.602Z,7.50
2018-12-12T00:16:03.274Z,6.23
2018-12-12T00:18:30.937Z,4.33
2018-12-12T00:20:58.600Z,3.27
2018-12-12T00:23:26.262Z,2.57
2018-12-12T00:25:53.915Z,2.00
2018-12-12T00:28:21.588Z,4.57
2018-12-12T00:30:49.212Z,3.13
2018-12-12T00:33:16.821Z,4.70
2018-12-12T00:35:44.469Z,2.23
2018-12-12T00:38:12.140Z,12.57
2018-12-12T00:40:39.765Z,2.80
2018-12-12T00:43:07.435Z,3.40
2018-12-12T00:45:40.772Z,4.57
2018-12-12T00:48:08.420Z,3.53
2018-12-12T00:50:36.023Z,4.83
2018-12-12T00:53:03.648Z,5.67
2018-12-12T00:55:31.304Z,3.17
2018-12-12T00:57:59.055Z,4.50
2018-12-12T01:00:26.632Z,2.60
2018-12-12T01:02:54.294Z,2.00
2018-12-12T01:05:21.955Z,4.40
2018-12-12T01:07:49.620Z,2.47
2018-12-12T01:10:17.284Z,2.70
2018-12-12T01:12:44.938Z,1.93
2018-12-12T01:15:12.612Z,1.83
2018-12-12T01:17:40.273Z,2.33
2018-12-12T01:20:07.935Z,2.30
2018-12-12T01:22:35.795Z,6.93
2018-12-12T01:25:03.467Z,2.53
2018-12-12T01:27:31.178Z,2.80
2018-12-12T01:29:58.884Z,2.53
2018-12-12T01:32:26.556Z,3.27
2018-12-12T01:34:54.220Z,2.90
2018-12-12T01:37:21.944Z,5.90
2018-12-12T01:39:49.652Z,10.43
2018-12-12T01:42:17.306Z,5.80
2018-12-12T01:44:44.979Z,3.03
2018-12-12T01:47:12.636Z,3.43
2018-12-12T01:49:40.301Z,3.30
2018-12-12T01:52:07.958Z,2.53
2018-12-12T01:54:35.624Z,7.93
2018-12-12T01:57:03.252Z,3.57
2018-12-12T01:59:30.851Z,11.93
2018-12-12T02:01:58.517Z,20.13
2018-12-12T02:04:26.280Z,3.07
2018-12-12T02:06:54.248Z,3.07
2018-12-12T02:09:21.981Z,14.77
2018-12-12T02:11:49.681Z,8.03
2018-12-12T02:14:17.344Z,2.63
2018-12-12T02:16:45.009Z,3.17
2018-12-12T02:19:12.597Z,2.80
2018-12-12T02:21:40.228Z,2.83
2018-12-12T02:24:07.817Z,5.43
2018-12-12T02:26:35.453Z,2.60
2018-12-12T02:29:03.221Z,8.90
2018-12-12T02:31:30.882Z,2.90
2018-12-12T02:33:58.545Z,4.20
2018-12-12T02:36:26.153Z,3.57
2018-12-12T02:38:53.733Z,5.93
2018-12-12T02:41:21.340Z,5.70
2018-12-12T02:43:48.984Z,9.10
2018-12-12T02:46:16.653Z,2.77
2018-12-12T02:48:45.000Z,6.87
2018-12-12T02:51:12.701Z,2.97
2018-12-12T02:53:40.365Z,2.73
2018-12-12T02:56:08.018Z,2.43
2018-12-12T02:58:35.691Z,3.63
2018-12-12T03:01:03.349Z,2.50
2018-12-12T03:03:30.957Z,2.20
2018-12-12T03:05:58.577Z,1.90
2018-12-12T03:08:26.323Z,8.00
2018-12-12T03:10:53.904Z,3.67
2018-12-12T03:13:21.554Z,5.87
2018-12-12T03:15:49.216Z,2.63
2018-12-12T03:18:16.881Z,2.37
2018-12-12T03:20:44.545Z,2.23
2018-12-12T03:23:12.209Z,3.13
2018-12-12T03:25:39.866Z,2.13
2018-12-12T03:28:07.527Z,5.50
2018-12-12T03:30:35.193Z,5.90
2018-12-12T03:33:02.926Z,2.50
2018-12-12T03:35:30.596Z,2.70
2018-12-12T03:37:58.283Z,4.70
2018-12-12T03:40:26.209Z,2.70
2018-12-12T03:42:54.168Z,9.90
2018-12-12T03:45:21.789Z,7.90
2018-12-12T03:47:49.401Z,2.10
2018-12-12T03:50:17.017Z,3.50
2018-12-12T03:52:44.671Z,2.07
2018-12-12T03:55:12.337Z,2.87
2018-12-12T03:57:40.008Z,3.47
2018-12-12T04:00:08.529Z,4.10
2018-12-12T04:02:36.142Z,7.90
2018-12-12T04:05:04.431Z,2.60
2018-12-12T04:07:32.085Z,6.43
2018-12-12T04:09:59.688Z,2.63
2018-12-12T04:12:27.316Z,7.03
2018-12-12T04:14:54.920Z,3.27
2018-12-12T04:17:22.539Z,2.30
2018-12-12T04:19:50.297Z,2.80
2018-12-12T04:22:18.525Z,4.00
2018-12-12T04:24:46.376Z,5.20
2018-12-12T04:27:14.000Z,2.83
2018-12-12T04:29:41.659Z,7.10
2018-12-12T04:32:09.328Z,5.20
2018-12-12T04:34:36.996Z,2.07
2018-12-12T04:37:04.663Z,2.17
2018-12-12T04:39:32.318Z,2.93
2018-12-12T04:41:59.983Z,2.90
2018-12-12T04:44:27.601Z,8.40
2018-12-12T04:46:55.204Z,1.97
2018-12-12T04:49:22.869Z,3.83
2018-12-12T04:51:50.524Z,4.40
2018-12-12T04:54:18.189Z,3.60
2018-12-12T04:56:45.852Z,8.10
2018-12-12T04:59:13.707Z,8.30
2018-12-12T05:01:41.383Z,4.47
2018-12-12T05:04:09.045Z,5.53
2018-12-12T05:06:36.708Z,3.37
2018-12-12T05:09:06.425Z,5.23
2018-12-12T05:11:34.090Z,11.20
2018-12-12T05:14:01.851Z,5.87
2018-12-12T05:16:29.512Z,5.70
2018-12-12T05:18:57.167Z,6.70
2018-12-12T05:21:24.769Z,3.50
2018-12-12T05:23:52.396Z,4.40
2018-12-12T05:26:20.061Z,9.70
2018-12-12T05:28:48.240Z,5.33
2018-12-12T05:31:15.895Z,6.10
2018-12-12T05:33:43.560Z,8.80
2018-12-12T05:36:11.224Z,6.63
2018-12-12T05:38:39.405Z,13.10
2018-12-12T05:41:07.184Z,3.23
2018-12-12T05:43:34.825Z,9.60
2018-12-12T05:46:02.478Z,3.77
2018-12-12T05:48:30.063Z,7.60
2018-12-12T05:50:57.672Z,9.63
2018-12-12T05:53:25.260Z,9.27
2018-12-12T05:55:52.941Z,3.77
2018-12-12T05:58:20.521Z,4.73
2018-12-12T06:00:48.165Z,3.30
2018-12-12T06:03:15.915Z,5.33
2018-12-12T06:05:43.588Z,7.27
2018-12-12T06:08:11.249Z,11.97
2018-12-12T06:10:39.004Z,3.47
2018-12-12T06:13:06.680Z,5.47
2018-12-12T06:15:34.753Z,3.93
2018-12-12T06:18:02.422Z,5.53
2018-12-12T06:20:30.081Z,7.77
2018-12-12T06:22:57.747Z,2.73
2018-12-12T06:25:25.332Z,8.77
2018-12-12T06:27:53.069Z,1.90
2018-12-12T06:30:20.733Z,1.23
2018-12-12T06:32:48.392Z,1.10
2018-12-12T06:35:16.056Z,0.70
2018-12-12T06:37:43.716Z,1.23
2018-12-12T06:40:11.388Z,3.53
2018-12-12T06:42:39.035Z,0.83
2018-12-12T06:45:06.917Z,2.27
2018-12-12T06:47:34.573Z,2.00
2018-12-12T06:50:02.227Z,1.33
2018-12-12T06:52:29.904Z,1.37
2018-12-12T06:54:57.560Z,1.03
2018-12-12T06:57:25.410Z,1.70
2018-12-12T06:59:53.200Z,2.90
2018-12-12T07:02:20.861Z,2.50
2018-12-12T07:04:48.541Z,2.90
2018-12-12T07:07:16.288Z,1.70
2018-12-12T07:09:44.000Z,3.53
2018-12-12T07:12:11.717Z,2.67
2018-12-12T07:14:39.344Z,2.33
2018-12-12T07:17:06.953Z,3.63
2018-12-12T07:19:34.606Z,4.17
2018-12-12T07:22:02.197Z,2.67
2018-12-12T07:24:29.829Z,3.00
2018-12-12T07:26:57.560Z,2.80
2018-12-12T07:29:25.249Z,2.10
2018-12-12T07:31:52.837Z,2.30
2018-12-12T07:34:20.497Z,3.23
2018-12-12T07:36:48.145Z,1.30
2018-12-12T07:39:18.010Z,3.77
2018-12-12T07:41:45.597Z,1.40
2018-12-12T07:44:13.276Z,2.20
2018-12-12T07:46:42.347Z,2.60
2018-12-12T07:49:10.384Z,4.90
2018-12-12T07:51:38.008Z,3.10
2018-12-12T07:54:05.677Z,13.73
2018-12-12T07:56:33.335Z,7.80
2018-12-12T07:59:00.997Z,10.40
2018-12-12T08:01:28.656Z,4.10
2018-12-12T08:03:56.317Z,4.40
2018-12-12T08:06:23.980Z,3.93
2018-12-12T08:08:51.653Z,2.87
2018-12-12T08:11:19.308Z,4.20
2018-12-12T08:13:46.972Z,7.50
2018-12-12T08:16:14.729Z,3.40
2018-12-12T08:18:42.564Z,2.30
2018-12-12T08:21:10.267Z,4.63
2018-12-12T08:23:37.936Z,2.50
2018-12-12T08:26:05.599Z,6.33
2018-12-12T08:28:33.261Z,3.83
2018-12-12T08:31:00.967Z,3.37
2018-12-12T08:33:28.553Z,3.03
2018-12-12T08:35:56.253Z,4.47
2018-12-12T08:38:23.908Z,8.53
2018-12-12T08:40:51.985Z,8.20
2018-12-12T08:43:19.605Z,4.10
2018-12-12T08:45:47.213Z,19.47
2018-12-12T08:48:14.868Z,14.20
2018-12-12T08:50:42.537Z,6.40
2018-12-12T08:53:10.193Z,5.97
2018-12-12T08:55:37.865Z,4.20
2018-12-12T08:58:05.516Z,19.67
2018-12-12T09:00:33.185Z,16.83
2018-12-12T09:03:00.849Z,9.97
2018-12-12T09:05:28.514Z,2.93
2018-12-12T09:07:56.538Z,3.17
2018-12-12T09:10:24.140Z,5.70
2018-12-12T09:12:51.813Z,2.07
2018-12-12T09:15:19.468Z,4.20
2018-12-12T09:17:47.129Z,2.03
2018-12-12T09:20:14.797Z,2.53
2018-12-12T09:22:42.453Z,4.20
2018-12-12T09:25:10.288Z,3.13
2018-12-12T09:27:37.889Z,2.50
2018-12-12T09:30:05.620Z,5.30
2018-12-12T09:32:33.308Z,3.27
2018-12-12T09:35:00.977Z,4.80
2018-12-12T09:37:28.640Z,4.83
2018-12-12T09:39:56.305Z,3.43
2018-12-12T09:42:23.960Z,3.00
2018-12-12T09:44:51.628Z,2.60
2018-12-12T09:47:19.379Z,6.27
2018-12-12T09:49:47.051Z,4.60
2018-12-12T09:52:14.719Z,3.27
2018-12-12T09:54:42.339Z,8.90
2018-12-12T09:57:10.044Z,9.97
2018-12-12T09:59:37.704Z,8.73
2018-12-12T10:02:05.466Z,7.13
2018-12-12T10:04:33.242Z,3.97
2018-12-12T10:07:00.898Z,4.00
2018-12-12T10:09:28.566Z,3.03
2018-12-12T10:11:56.220Z,3.57
2018-12-12T10:14:23.812Z,15.60
2018-12-12T10:16:51.458Z,4.90
2018-12-12T10:19:19.108Z,5.50
2018-12-12T10:21:46.864Z,4.40
2018-12-12T10:24:16.536Z,8.77
2018-12-12T10:26:44.415Z,3.93
2018-12-12T10:29:11.993Z,6.63
2018-12-12T10:31:39.681Z,4.10
2018-12-12T10:34:07.340Z,4.00
2018-12-12T10:36:34.929Z,5.80
2018-12-12T10:39:03.084Z,4.13
2018-12-12T10:41:30.740Z,3.00
2018-12-12T10:43:58.349Z,7.37
2018-12-12T10:46:25.965Z,17.73
2018-12-12T10:48:53.628Z,3.00
2018-12-12T10:51:21.285Z,2.60
2018-12-12T10:53:48.948Z,4.70
2018-12-12T10:56:16.580Z,3.53
2018-12-12T10:58:44.193Z,2.70
2018-12-12T11:01:17.270Z,5.53
2018-12-12T11:03:44.877Z,8.57
2018-12-12T11:06:12.488Z,8.50
2018-12-12T11:08:40.428Z,6.63
2018-12-12T11:11:08.116Z,5.40
2018-12-12T11:13:36.092Z,2.10
2018-12-12T11:16:05.112Z,1.70
2018-12-12T11:18:33.057Z,3.93
2018-12-12T11:21:00.807Z,2.77
2018-12-12T11:23:28.485Z,3.07
2018-12-12T11:25:56.149Z,3.00
2018-12-12T11:28:23.913Z,3.97
2018-12-12T11:30:51.571Z,5.27
2018-12-12T11:33:19.241Z,3.20
2018-12-12T11:35:46.897Z,3.50
2018-12-12T11:38:14.566Z,11.20
2018-12-12T11:40:42.228Z,6.00
2018-12-12T11:43:09.812Z,2.00
2018-12-12T11:45:37.469Z,4.60
2018-12-12T11:48:05.112Z,2.77
2018-12-12T11:50:32.783Z,2.50
2018-12-12T11:53:00.435Z,3.00
2018-12-12T11:55:28.105Z,1.40
2018-12-12T11:57:55.771Z,1.30
2018-12-12T12:00:23.424Z,4.43
2018-12-12T12:02:51.092Z,1.20
2018-12-12T12:05:18.841Z,1.47
2018-12-12T12:07:46.607Z,0.90
2018-12-12T12:10:14.283Z,1.20
2018-12-12T12:12:41.917Z,1.00
2018-12-12T12:15:09.617Z,4.00
2018-12-12T12:17:37.273Z,6.33
2018-12-12T12:20:05.039Z,7.27
2018-12-12T12:22:32.701Z,2.80
2018-12-12T12:25:00.333Z,3.53
2018-12-12T12:27:28.024Z,2.00
2018-12-12T12:29:55.690Z,1.60
2018-12-12T12:32:23.352Z,1.97
2018-12-12T12:34:51.007Z,1.47
2018-12-12T12:37:18.671Z,2.13
2018-12-12T12:39:46.342Z,1.60
2018-12-12T12:42:14.000Z,1.53
2018-12-12T12:44:41.652Z,2.30
2018-12-12T12:47:09.272Z,1.30
2018-12-12T12:49:36.894Z,3.23
2018-12-12T12:52:04.547Z,1.13
2018-12-12T12:54:32.213Z,2.67
2018-12-12T12:57:00.180Z,3.03
2018-12-12T12:59:27.840Z,1.30
2018-12-12T13:01:55.513Z,1.87
2018-12-12T13:04:23.620Z,2.00
2018-12-12T13:06:51.244Z,1.63
2018-12-12T13:09:18.909Z,1.30
2018-12-12T13:11:46.677Z,2.53
2018-12-12T13:14:14.382Z,1.83
2018-12-12T13:16:42.168Z,1.50
2018-12-12T13:19:09.757Z,6.00
2018-12-12T13:21:37.404Z,3.30
2018-12-12T13:24:04.992Z,1.40
2018-12-12T13:26:32.600Z,4.40
2018-12-12T13:29:00.302Z,1.73
2018-12-12T13:31:27.972Z,1.87
2018-12-12T13:33:55.636Z,2.50
2018-12-12T13:36:23.621Z,2.87
2018-12-12T13:38:51.276Z,4.50
2018-12-12T13:41:18.933Z,1.83
2018-12-12T13:43:46.601Z,10.80
2018-12-12T13:46:14.180Z,3.97
2018-12-12T13:48:41.825Z,4.50
2018-12-12T13:51:09.484Z,33.30
2018-12-12T13:53:37.146Z,3.00
2018-12-12T13:56:04.816Z,3.53
2018-12-12T13:58:32.576Z,2.00
2018-12-12T14:01:00.241Z,2.13
2018-12-12T14:03:27.909Z,1.63
2018-12-12T14:05:55.655Z,8.67
2018-12-12T14:08:23.324Z,17.63
2018-12-12T14:10:50.992Z,14.03
2018-12-12T14:13:18.653Z,1.93
2018-12-12T14:15:46.316Z,1.97
2018-12-12T14:18:13.921Z,3.70
2018-12-12T14:20:41.545Z,2.13
2018-12-12T14:23:09.204Z,3.80
2018-12-12T14:25:36.789Z,2.07
2018-12-12T14:28:04.524Z,4.10
2018-12-12T14:30:32.204Z,3.27
2018-12-12T14:32:59.853Z,3.50
2018-12-12T14:35:27.512Z,2.23
2018-12-12T14:37:55.184Z,2.30
2018-12-12T14:40:22.849Z,1.73
2018-12-12T14:42:50.504Z,6.80
2018-12-12T14:45:18.164Z,2.47
2018-12-12T14:47:45.836Z,5.07
2018-12-12T14:50:13.688Z,2.40
2018-12-12T14:52:41.323Z,2.50
2018-12-12T14:55:09.027Z,4.90
2018-12-12T14:57:36.653Z,3.83
2018-12-12T15:00:05.247Z,2.50
2018-12-12T15:02:32.936Z,5.73
2018-12-12T15:05:00.601Z,7.77
2018-12-12T15:07:28.372Z,3.57
2018-12-12T15:09:56.032Z,5.70
2018-12-12T15:12:23.692Z,4.17
2018-12-12T15:14:51.352Z,6.30
2018-12-12T15:17:19.016Z,7.00
2018-12-12T15:19:46.664Z,5.00
2018-12-12T15:22:14.493Z,8.37
2018-12-12T15:24:42.206Z,3.20
2018-12-12T15:27:09.877Z,5.40
2018-12-12T15:29:37.537Z,4.93
2018-12-12T15:32:05.297Z,3.03
2018-12-12T15:34:33.054Z,7.37
2018-12-12T15:37:00.724Z,5.10
2018-12-12T15:39:28.388Z,7.67
2018-12-12T15:41:56.057Z,10.53
2018-12-12T15:44:23.637Z,2.80
2018-12-12T15:46:51.280Z,6.10
2018-12-12T15:49:19.005Z,3.80
2018-12-12T15:51:46.708Z,3.33
2018-12-12T15:54:14.368Z,6.27
2018-12-12T15:56:42.360Z,3.83
2018-12-12T15:59:10.004Z,22.43
2018-12-12T16:01:37.668Z,5.30
2018-12-12T16:04:05.262Z,4.83
2018-12-12T16:06:32.871Z,5.97
2018-12-12T16:09:00.548Z,6.60
2018-12-12T16:11:28.277Z,6.03
2018-12-12T16:13:55.980Z,4.73
2018-12-12T16:16:23.644Z,10.33
2018-12-12T16:18:51.309Z,9.60
2018-12-12T16:21:19.068Z,8.03
2018-12-12T16:23:46.733Z,5.40
2018-12-12T16:26:14.396Z,10.27
2018-12-12T16:28:42.061Z,13.93
2018-12-12T16:31:09.711Z,5.70
2018-12-12T16:33:37.384Z,9.20
2018-12-12T16:36:05.054Z,14.70
2018-12-12T16:38:32.717Z,19.80
2018-12-12T16:41:00.368Z,5.53
2018-12-12T16:43:28.037Z,8.10
2018-12-12T16:45:55.641Z,7.50
2018-12-12T16:48:23.660Z,12.07
2018-12-12T16:50:51.280Z,21.37
2018-12-12T16:53:18.900Z,10.53
2018-12-12T16:55:46.556Z,19.97
2018-12-12T16:58:14.212Z,15.73
2018-12-12T17:00:41.876Z,14.07
2018-12-12T17:03:09.479Z,9.43
2018-12-12T17:05:37.208Z,11.90
2018-12-12T17:08:04.868Z,9.40
2018-12-12T17:10:32.528Z,13.10
2018-12-12T17:13:00.192Z,9.97
2018-12-12T17:15:27.862Z,14.37
2018-12-12T17:17:55.477Z,6.00
2018-12-12T17:20:23.180Z,13.33
2018-12-12T17:22:50.922Z,9.63
2018-12-12T17:25:18.920Z,18.17
2018-12-12T17:27:46.520Z,7.47
2018-12-12T17:30:14.140Z,14.80
2018-12-12T17:32:42.468Z,16.80
2018-12-12T17:35:10.093Z,18.53
2018-12-12T17:37:37.745Z,22.67
2018-12-12T17:40:06.205Z,21.63
2018-12-12T17:42:33.979Z,17.50
2018-12-12T17:45:01.661Z,16.20
2018-12-12T17:47:29.283Z,17.90
2018-12-12T17:49:56.985Z,17.27
2018-12-12T17:52:24.744Z,11.17
2018-12-12T17:54:52.408Z,9.90
2018-12-12T17:57:20.176Z,17.57
2018-12-12T17:59:47.849Z,6.83
2018-12-12T18:02:15.435Z,11.23
2018-12-12T18:04:43.052Z,12.53
2018-12-12T18:07:10.725Z,7.17
2018-12-12T18:09:38.382Z,9.90
2018-12-12T18:12:06.053Z,13.10
2018-12-12T18:14:33.712Z,16.63
2018-12-12T18:17:01.376Z,8.70
2018-12-12T18:19:29.297Z,5.93
2018-12-12T18:21:57.303Z,6.53
2018-12-12T18:24:25.272Z,7.60
2018-12-12T18:26:52.959Z,6.40
2018-12-12T18:29:20.576Z,8.63
2018-12-12T18:31:48.166Z,15.97
2018-12-12T18:34:16.656Z,23.67
2018-12-12T18:36:44.249Z,22.97
2018-12-12T18:39:11.877Z,36.87
2018-12-12T18:41:39.541Z,69.13
2018-12-12T18:44:07.204Z,43.83
2018-12-12T18:46:34.869Z,67.17
2018-12-12T18:49:02.480Z,79.77
2018-12-12T18:51:30.281Z,73.93
2018-12-12T18:53:57.982Z,68.90
2018-12-12T18:56:25.856Z,28.63
2018-12-12T18:58:53.593Z,21.70
2018-12-12T19:03:57.092Z,39.70
2018-12-12T19:06:24.737Z,41.20
2018-12-12T19:08:52.427Z,18.83
2018-12-12T19:11:20.084Z,15.10
2018-12-12T19:13:47.675Z,58.23
2018-12-12T19:16:15.333Z,53.03
2018-12-12T19:18:42.988Z,26.07
2018-12-12T19:21:10.648Z,44.80
2018-12-12T19:23:38.584Z,35.73
2018-12-12T19:26:06.280Z,18.67
2018-12-12T19:28:34.029Z,26.40
2018-12-12T19:31:01.708Z,10.30
2018-12-12T19:33:29.372Z,14.90
2018-12-12T19:35:57.031Z,15.80
2018-12-12T19:38:24.697Z,13.50
2018-12-12T19:40:52.347Z,8.17
2018-12-12T19:43:20.015Z,12.27
2018-12-12T19:45:47.671Z,8.63
2018-12-12T19:48:15.343Z,14.27
2018-12-12T19:50:42.978Z,9.93
2018-12-12T19:53:10.565Z,9.13
2018-12-12T19:55:38.228Z,9.63
2018-12-12T19:58:05.908Z,14.43
2018-12-12T20:00:33.516Z,18.33
2018-12-12T20:03:01.115Z,14.93
2018-12-12T20:05:28.781Z,16.07
2018-12-12T20:07:56.379Z,11.50
2018-12-12T20:10:24.108Z,13.87
2018-12-12T20:12:51.768Z,19.40
2018-12-12T20:18:16.189Z,16.50
2018-12-12T20:20:43.801Z,11.03
2018-12-12T20:23:11.396Z,15.70
2018-12-12T20:25:39.068Z,10.53
2018-12-12T20:28:06.828Z,7.97
2018-12-12T20:30:35.485Z,14.13
2018-12-12T20:33:03.483Z,10.53
2018-12-12T20:35:31.148Z,7.50
2018-12-12T20:37:58.870Z,4.20
2018-12-12T20:40:26.472Z,3.33
2018-12-12T20:42:54.132Z,4.00
2018-12-12T20:45:21.800Z,3.47
2018-12-12T20:47:49.768Z,2.83
2018-12-12T20:50:17.437Z,3.00
2018-12-12T20:52:45.190Z,6.20
2018-12-12T20:55:12.892Z,2.50
2018-12-12T20:57:40.557Z,8.07
2018-12-12T21:00:08.278Z,2.47
2018-12-12T21:02:35.952Z,2.00
2018-12-12T21:05:03.612Z,2.00
2018-12-12T21:07:31.265Z,6.57
2018-12-12T21:09:58.940Z,2.20
2018-12-12T21:12:26.553Z,12.83
2018-12-12T21:14:54.163Z,1.80
2018-12-12T21:17:21.833Z,2.60
2018-12-12T21:19:49.449Z,1.57
2018-12-12T21:22:17.156Z,4.30
2018-12-12T21:24:44.813Z,1.97
2018-12-12T21:27:12.476Z,3.23
2018-12-12T21:29:40.140Z,8.90
2018-12-12T21:32:07.804Z,1.93
2018-12-12T21:34:35.464Z,2.33
2018-12-12T21:37:03.128Z,2.70
2018-12-12T21:39:30.797Z,3.60
2018-12-12T21:41:58.453Z,2.53
2018-12-12T21:44:26.118Z,3.97
2018-12-12T21:46:53.813Z,1.77
2018-12-12T21:49:21.440Z,1.87
2018-12-12T21:51:49.104Z,2.30
2018-12-12T21:54:16.772Z,2.43
2018-12-12T21:56:44.436Z,1.80
2018-12-12T21:59:12.036Z,1.57
2018-12-12T22:01:39.616Z,1.77
2018-12-12T22:04:07.317Z,3.07
2018-12-12T22:06:34.971Z,1.93
2018-12-12T22:09:02.725Z,2.60
2018-12-12T22:11:30.304Z,1.57
2018-12-12T22:13:57.904Z,1.20
2018-12-12T22:16:25.528Z,2.20
2018-12-12T22:18:53.448Z,4.40
2018-12-12T22:21:21.061Z,5.43
2018-12-12T22:23:48.724Z,2.43
2018-12-12T22:26:16.384Z,3.43
2018-12-12T22:28:43.983Z,2.03
2018-12-12T22:31:11.609Z,2.07
2018-12-12T22:33:39.234Z,2.60
2018-12-12T22:36:06.827Z,2.57
2018-12-12T22:38:34.496Z,3.83
2018-12-12T22:41:02.099Z,3.60
2018-12-12T22:43:29.716Z,2.00
2018-12-12T22:45:57.380Z,4.10
2018-12-12T22:48:25.049Z,1.07
2018-12-12T22:50:52.657Z,1.07
2018-12-12T22:53:20.258Z,1.20
2018-12-12T22:55:47.923Z,3.87
2018-12-12T22:58:15.597Z,1.10
2018-12-12T23:00:45.261Z,4.30
2018-12-12T23:03:12.968Z,1.30
2018-12-12T23:05:40.629Z,1.43
2018-12-12T23:08:08.537Z,1.20
2018-12-12T23:10:36.156Z,3.17
2018-12-12T23:13:03.777Z,1.40
2018-12-12T23:15:31.487Z,2.60
2018-12-12T23:17:59.157Z,0.87
2018-12-12T23:20:26.812Z,1.40
2018-12-12T23:22:54.477Z,1.67
2018-12-12T23:25:22.086Z,4.53
2018-12-12T23:27:49.700Z,1.20
2018-12-12T23:30:17.362Z,1.57
2018-12-12T23:32:45.028Z,1.23
2018-12-12T23:35:13.095Z,0.70
2018-12-12T23:37:40.686Z,1.10
2018-12-12T23:40:08.296Z,1.13
2018-12-12T23:42:35.924Z,2.30
2018-12-12T23:45:04.068Z,1.60
2018-12-12T23:47:31.648Z,2.07
2018-12-12T23:49:59.285Z,4.07
2018-12-12T23:52:26.940Z,1.43
2018-12-12T23:54:54.608Z,2.30
2018-12-12T23:57:22.667Z,1.57
2018-12-12T23:59:50.271Z,1.73
